Time;durP1;ratioP1;P1;durP2;ratioP2;P2;SDS_P1;SDS_P2;PMS_P1;PMS_P2;Temp;Humidity;BMP_temperature;BMP_pressure;BME280_temperature;BME280_humidity;BME280_pressure;Samples;Min_cycle;Max_cycle;Signal;HPM_P1;HPM_P2
2021/05/13 00:01:22;;;;;;;8.73;7.83;;;12.20;78.80;;;;;;4991533;28;20438;-72
2021/05/13 00:03:49;;;;;;;9.53;8.53;;;12.20;79.20;;;;;;4992483;28;20485;-72
2021/05/13 00:06:14;;;;;;;12.10;8.70;;;12.10;79.00;;;;;;4973924;28;20431;-70
2021/05/13 00:08:40;;;;;;;12.17;8.20;;;12.10;79.00;;;;;;4990410;28;20778;-73
2021/05/13 00:11:07;;;;;;;16.80;9.43;;;12.00;79.10;;;;;;4992259;28;20534;-71
2021/05/13 00:13:35;;;;;;;12.80;9.70;;;12.00;80.10;;;;;;4973347;28;20195;-70
2021/05/13 00:16:02;;;;;;;11.30;8.30;;;11.90;79.60;;;;;;4973517;28;20419;-72
2021/05/13 00:18:28;;;;;;;14.40;9.13;;;11.90;80.00;;;;;;4972823;28;20815;-72
2021/05/13 00:20:55;;;;;;;13.87;9.30;;;11.80;80.10;;;;;;4979485;28;20418;-72
2021/05/13 00:23:21;;;;;;;10.67;8.93;;;11.90;81.00;;;;;;4991705;28;20960;-72
2021/05/13 00:25:49;;;;;;;12.60;9.97;;;11.80;80.10;;;;;;4990210;28;20493;-72
2021/05/13 00:28:15;;;;;;;11.90;8.90;;;11.80;80.30;;;;;;4991532;28;20417;-74
2021/05/13 00:30:41;;;;;;;11.33;7.73;;;11.80;80.30;;;;;;4973408;28;20415;-72
2021/05/13 00:33:07;;;;;;;10.40;7.97;;;11.80;80.30;;;;;;4991263;28;20454;-71
2021/05/13 00:35:32;;;;;;;10.87;8.53;;;11.80;80.20;;;;;;4990370;28;20214;-72
2021/05/13 00:37:58;;;;;;;15.40;10.10;;;11.80;80.40;;;;;;4973502;28;20446;-71
2021/05/13 00:40:23;;;;;;;14.30;10.17;;;11.80;80.30;;;;;;4990660;28;20160;-70
2021/05/13 00:42:50;;;;;;;12.73;10.13;;;11.70;80.80;;;;;;4973501;28;20673;-71
2021/05/13 00:45:17;;;;;;;13.60;9.70;;;11.70;81.40;;;;;;4972998;28;20253;-71
2021/05/13 00:48:05;;;;;;;12.13;9.80;;;11.60;81.90;;;;;;4990857;28;20438;-71
2021/05/13 00:50:31;;;;;;;12.53;9.07;;;11.60;82.10;;;;;;4990090;28;20889;-72
2021/05/13 00:52:57;;;;;;;13.13;10.73;;;11.60;82.00;;;;;;4988192;28;20470;-71
2021/05/13 00:55:22;;;;;;;14.77;10.93;;;11.60;82.90;;;;;;4989928;28;20446;-72
2021/05/13 00:57:52;;;;;;;12.93;10.10;;;11.60;83.80;;;;;;4973863;28;20757;-71
2021/05/13 01:00:32;;;;;;;12.00;9.00;;;11.60;83.50;;;;;;4991082;28;21819;-71
2021/05/13 01:02:59;;;;;;;13.20;9.30;;;11.60;82.70;;;;;;4973515;28;20469;-72
2021/05/13 01:05:25;;;;;;;15.17;10.20;;;11.50;82.10;;;;;;4989662;28;20449;-72
2021/05/13 01:07:51;;;;;;;10.63;9.20;;;11.50;82.10;;;;;;4990884;28;20415;-71
2021/05/13 01:10:17;;;;;;;14.43;10.57;;;11.40;82.20;;;;;;4990615;28;20442;-71
2021/05/13 01:12:44;;;;;;;12.90;9.37;;;11.40;83.20;;;;;;4973610;28;20789;-71
2021/05/13 01:15:20;;;;;;;11.63;10.10;;;11.30;83.60;;;;;;4990594;28;20506;-72
2021/05/13 01:17:57;;;;;;;12.60;10.07;;;11.30;83.50;;;;;;4991184;28;20432;-72
2021/05/13 01:20:25;;;;;;;10.67;9.47;;;11.30;83.40;;;;;;4990298;28;20429;-71
2021/05/13 01:22:52;;;;;;;10.80;9.70;;;11.30;82.60;;;;;;4973068;28;20446;-71
2021/05/13 01:25:17;;;;;;;15.37;11.13;;;11.20;83.90;;;;;;4990006;28;20928;-71
2021/05/13 01:27:43;;;;;;;14.20;10.63;;;11.10;84.80;;;;;;4972804;28;20449;-72
2021/05/13 01:30:09;;;;;;;17.17;11.73;;;11.10;85.70;;;;;;4973127;28;20608;-72
2021/05/13 01:32:35;;;;;;;15.83;10.67;;;11.20;86.20;;;;;;4990471;28;20562;-71
2021/05/13 01:35:00;;;;;;;11.00;9.70;;;11.20;86.10;;;;;;4992655;28;20435;-69
2021/05/13 01:37:26;;;;;;;14.57;10.60;;;11.20;85.70;;;;;;4973996;28;20641;-71
2021/05/13 01:39:52;;;;;;;17.70;11.47;;;11.20;85.60;;;;;;4957245;28;20179;-71
2021/05/13 01:42:17;;;;;;;13.90;10.70;;;11.10;85.10;;;;;;4990724;28;20282;-72
2021/05/13 01:44:44;;;;;;;14.17;9.87;;;11.10;85.40;;;;;;4973870;28;20210;-72
2021/05/13 01:47:10;;;;;;;15.27;10.63;;;11.10;85.80;;;;;;4990795;28;20227;-72
2021/05/13 01:49:35;;;;;;;14.67;11.10;;;11.10;86.10;;;;;;4992592;28;20422;-72
2021/05/13 01:52:01;;;;;;;14.53;10.47;;;11.10;86.10;;;;;;4990497;28;20657;-71
2021/05/13 01:54:28;;;;;;;12.03;9.60;;;11.10;85.80;;;;;;4972706;28;20178;-72
2021/05/13 01:57:01;;;;;;;12.73;9.90;;;11.10;85.50;;;;;;4989910;28;20168;-71
2021/05/13 01:59:27;;;;;;;13.00;9.37;;;11.10;85.30;;;;;;4989893;28;20419;-71
2021/05/13 02:01:53;;;;;;;9.20;8.13;;;11.10;85.20;;;;;;4989588;28;20900;-70
2021/05/13 02:04:18;;;;;;;16.03;10.30;;;11.10;85.20;;;;;;4989864;28;20319;-70
2021/05/13 02:06:44;;;;;;;10.67;9.27;;;11.10;85.10;;;;;;4990070;28;20178;-71
2021/05/13 02:09:10;;;;;;;19.33;9.87;;;11.10;85.30;;;;;;4972442;28;20175;-71
2021/05/13 02:11:35;;;;;;;17.30;9.57;;;11.10;84.70;;;;;;4993901;28;20187;-71
2021/05/13 02:14:01;;;;;;;10.40;9.07;;;11.10;84.50;;;;;;4994017;28;20242;-70
2021/05/13 02:16:26;;;;;;;11.27;8.60;;;11.10;84.30;;;;;;4976300;28;20263;-71
2021/05/13 02:18:52;;;;;;;10.57;8.47;;;11.10;84.30;;;;;;4993705;28;20654;-71
2021/05/13 02:21:18;;;;;;;8.40;7.30;;;11.10;84.00;;;;;;4993605;28;20176;-71
2021/05/13 02:23:43;;;;;;;8.77;7.80;;;11.10;84.00;;;;;;4962855;28;20208;-70
2021/05/13 02:26:09;;;;;;;12.13;9.90;;;11.10;83.90;;;;;;4974482;28;20259;-71
2021/05/13 02:28:35;;;;;;;10.20;7.77;;;11.10;83.40;;;;;;4974637;28;20251;-70
2021/05/13 02:31:00;;;;;;;13.13;9.20;;;11.10;83.40;;;;;;4993410;28;20234;-71
2021/05/13 02:33:26;;;;;;;11.57;9.00;;;11.10;83.20;;;;;;4959572;28;20755;-71
2021/05/13 02:35:51;;;;;;;8.70;7.80;;;11.10;83.00;;;;;;4993555;28;20361;-71
2021/05/13 02:38:17;;;;;;;12.10;9.27;;;11.00;82.90;;;;;;4993504;28;20176;-71
2021/05/13 02:40:43;;;;;;;12.00;8.80;;;11.00;82.90;;;;;;4993040;28;20215;-70
2021/05/13 02:43:08;;;;;;;11.50;9.03;;;11.00;82.80;;;;;;4987915;28;20191;-71
2021/05/13 02:45:34;;;;;;;8.63;7.73;;;11.00;82.80;;;;;;4993815;28;20228;-71
2021/05/13 02:47:59;;;;;;;11.07;7.80;;;10.90;82.60;;;;;;4993530;28;20255;-71
2021/05/13 02:50:26;;;;;;;13.53;8.60;;;10.90;82.70;;;;;;4976293;28;20187;-70
2021/05/13 02:52:51;;;;;;;11.03;9.00;;;10.90;83.70;;;;;;4956348;28;20282;-71
2021/05/13 02:55:17;;;;;;;13.63;8.10;;;10.90;83.00;;;;;;4969447;28;21024;-71
2021/05/13 02:57:43;;;;;;;12.37;8.83;;;10.90;83.00;;;;;;4993201;28;20241;-70
2021/05/13 03:00:24;;;;;;;9.73;8.33;;;10.90;83.10;;;;;;4993508;28;20175;-71
2021/05/13 03:02:49;;;;;;;9.53;7.70;;;10.90;83.10;;;;;;4993085;28;20480;-72
2021/05/13 03:05:16;;;;;;;10.60;8.23;;;10.80;83.00;;;;;;4993442;28;20422;-72
2021/05/13 03:07:46;;;;;;;10.93;8.90;;;10.80;83.20;;;;;;4975744;28;20175;-70
2021/05/13 03:10:24;;;;;;;9.57;8.40;;;10.80;83.40;;;;;;4993264;28;20422;-71
2021/05/13 03:12:52;;;;;;;11.50;8.93;;;10.80;83.70;;;;;;4975674;28;20494;-70
2021/05/13 03:15:19;;;;;;;11.90;8.67;;;10.80;84.40;;;;;;4991591;28;20793;-70
2021/05/13 03:17:45;;;;;;;11.87;8.93;;;10.70;84.40;;;;;;4993124;28;20406;-70
2021/05/13 03:20:14;;;;;;;11.00;8.87;;;10.70;84.40;;;;;;4975194;28;20445;-71
2021/05/13 03:22:40;;;;;;;11.30;9.73;;;10.70;84.90;;;;;;4987674;28;20521;-70
2021/05/13 03:25:07;;;;;;;12.37;9.17;;;10.60;85.40;;;;;;4948691;28;20431;-71
2021/05/13 03:27:49;;;;;;;12.17;8.07;;;10.50;85.60;;;;;;4992893;28;20816;-71
2021/05/13 03:30:18;;;;;;;13.10;10.07;;;10.50;86.10;;;;;;4986645;28;20519;-72
2021/05/13 03:32:44;;;;;;;14.00;9.97;;;10.50;85.90;;;;;;4956232;28;20455;-71
2021/05/13 03:35:11;;;;;;;14.20;9.10;;;10.50;86.10;;;;;;4983335;28;20454;-71
2021/05/13 03:37:36;;;;;;;9.90;8.60;;;10.40;86.20;;;;;;4992813;28;20765;-71
2021/05/13 03:40:03;;;;;;;11.13;8.63;;;10.40;86.20;;;;;;4992688;28;20486;-70
2021/05/13 03:42:28;;;;;;;11.70;8.47;;;10.40;86.40;;;;;;4974992;28;20302;-72
2021/05/13 03:44:54;;;;;;;11.73;8.57;;;10.30;86.30;;;;;;4975482;28;20434;-73
2021/05/13 03:47:20;;;;;;;10.50;9.40;;;10.30;86.40;;;;;;4992698;28;20251;-72
2021/05/13 03:49:46;;;;;;;14.67;11.63;;;10.30;86.30;;;;;;4991049;28;20214;-71
2021/05/13 03:52:12;;;;;;;10.53;7.60;;;10.30;86.50;;;;;;4992130;28;20486;-71
2021/05/13 03:54:38;;;;;;;12.73;8.47;;;10.30;86.70;;;;;;4985253;28;20169;-70
2021/05/13 03:57:04;;;;;;;11.63;8.07;;;10.40;86.70;;;;;;4972268;28;20554;-71
2021/05/13 03:59:35;;;;;;;12.53;9.50;;;10.40;86.50;;;;;;4979395;28;20172;-70
2021/05/13 04:04:37;;;;;;;8.70;6.83;;;10.40;86.20;;;;;;4992023;28;20410;-71
2021/05/13 04:07:04;;;;;;;12.63;7.60;;;10.40;85.90;;;;;;4974754;28;20534;-72
2021/05/13 04:09:30;;;;;;;8.80;7.67;;;10.50;85.80;;;;;;4991637;28;20560;-72
2021/05/13 04:11:56;;;;;;;10.37;7.93;;;10.50;85.40;;;;;;4974772;28;20465;-71
2021/05/13 04:14:22;;;;;;;10.43;6.63;;;10.50;85.50;;;;;;4991315;28;20510;-71
2021/05/13 04:16:56;;;;;;;7.83;6.33;;;10.50;85.00;;;;;;4991722;28;20445;-71
2021/05/13 04:19:22;;;;;;;9.00;6.57;;;10.50;85.30;;;;;;4991631;28;20438;-72
2021/05/13 04:21:48;;;;;;;8.43;6.77;;;10.50;85.00;;;;;;4993431;28;20434;-72
2021/05/13 04:24:14;;;;;;;6.67;5.97;;;10.40;84.90;;;;;;4992587;28;20196;-72
2021/05/13 04:26:41;;;;;;;8.73;6.90;;;10.40;85.00;;;;;;4991602;28;20437;-72
2021/05/13 04:29:08;;;;;;;8.23;5.43;;;10.40;85.40;;;;;;4991504;28;20442;-71
2021/05/13 04:31:35;;;;;;;8.00;5.93;;;10.40;85.20;;;;;;4974207;28;21006;-71
2021/05/13 04:34:02;;;;;;;8.57;6.17;;;10.30;84.80;;;;;;4978763;28;20460;-71
2021/05/13 04:36:28;;;;;;;8.60;7.00;;;10.20;85.10;;;;;;4990953;28;20450;-72
2021/05/13 04:38:53;;;;;;;6.33;5.57;;;10.30;85.60;;;;;;4973899;28;20876;-72
2021/05/13 04:41:19;;;;;;;8.87;6.70;;;10.30;85.90;;;;;;4991662;28;20207;-71
2021/05/13 04:43:45;;;;;;;8.73;6.07;;;10.30;86.10;;;;;;4991563;28;20196;-73
2021/05/13 04:46:11;;;;;;;8.23;6.60;;;10.30;86.20;;;;;;4974604;28;20191;-72
2021/05/13 04:48:54;;;;;;;9.63;7.90;;;10.40;86.10;;;;;;4992768;28;20441;-73
2021/05/13 04:51:23;;;;;;;8.83;6.80;;;10.50;85.30;;;;;;4997387;28;20454;-71
2021/05/13 04:53:50;;;;;;;8.70;6.87;;;10.50;84.60;;;;;;4997019;28;20501;-70
2021/05/13 04:56:19;;;;;;;9.17;6.80;;;10.60;84.40;;;;;;4997296;28;20490;-71
2021/05/13 04:58:46;;;;;;;12.90;10.00;;;10.60;84.00;;;;;;4991751;28;20454;-71
2021/05/13 05:01:12;;;;;;;12.07;7.90;;;10.70;83.80;;;;;;4995185;28;20521;-72
2021/05/13 05:03:37;;;;;;;11.07;7.70;;;10.70;83.10;;;;;;4975082;28;20941;-71
2021/05/13 05:06:04;;;;;;;11.50;7.87;;;10.70;82.90;;;;;;4973831;28;20171;-72
2021/05/13 05:08:30;;;;;;;10.10;6.83;;;10.70;82.60;;;;;;4990791;28;20167;-71
2021/05/13 05:10:56;;;;;;;24.93;16.93;;;10.70;82.40;;;;;;4990965;28;20452;-72
2021/05/13 05:13:22;;;;;;;11.03;7.60;;;10.70;82.30;;;;;;4990395;28;20569;-71
2021/05/13 05:15:47;;;;;;;10.70;7.33;;;10.80;82.20;;;;;;4990782;28;20423;-71
2021/05/13 05:18:17;;;;;;;11.57;8.40;;;10.90;82.40;;;;;;4990947;28;20629;-71
2021/05/13 05:20:43;;;;;;;8.80;6.87;;;11.00;82.10;;;;;;4990455;28;20732;-73
2021/05/13 05:23:09;;;;;;;9.30;7.30;;;11.00;80.90;;;;;;4990303;28;20451;-73
2021/05/13 05:25:35;;;;;;;9.67;7.37;;;11.10;81.60;;;;;;4989962;28;20218;-71
2021/05/13 05:28:00;;;;;;;7.00;6.30;;;11.10;80.50;;;;;;4973228;28;20960;-70
2021/05/13 05:30:26;;;;;;;9.60;7.17;;;11.10;80.40;;;;;;4990135;28;20617;-72
2021/05/13 05:32:52;;;;;;;8.23;6.20;;;11.20;80.60;;;;;;4972677;28;20223;-71
2021/05/13 05:35:18;;;;;;;8.47;6.20;;;11.20;80.60;;;;;;4989508;28;20433;-72
2021/05/13 05:37:44;;;;;;;7.37;6.67;;;11.20;80.30;;;;;;4972404;28;20176;-71
2021/05/13 05:40:16;;;;;;;9.20;6.70;;;11.30;80.10;;;;;;4989925;28;20419;-74
2021/05/13 05:42:42;;;;;;;6.40;5.50;;;11.30;80.90;;;;;;4990096;28;20192;-72
2021/05/13 05:45:08;;;;;;;10.87;5.30;;;11.30;78.80;;;;;;4990052;28;20434;-72
2021/05/13 05:47:34;;;;;;;7.50;6.13;;;11.30;79.70;;;;;;4991246;28;20171;-71
2021/05/13 05:49:59;;;;;;;6.20;4.60;;;11.80;81.60;;;;;;4990863;28;20980;-71
2021/05/13 05:52:25;;;;;;;10.40;5.43;;;13.40;79.10;;;;;;4973084;28;20260;-72
2021/05/13 05:54:51;;;;;;;5.10;4.60;;;15.60;72.40;;;;;;4990882;28;20219;-70
2021/05/13 05:57:17;;;;;;;5.10;3.93;;;17.40;59.90;;;;;;4990107;28;20164;-71
2021/05/13 05:59:42;;;;;;;5.90;4.37;;;18.50;57.60;;;;;;4990200;28;20500;-72
2021/05/13 06:02:08;;;;;;;5.93;4.67;;;20.00;55.60;;;;;;4990116;28;20199;-71
2021/05/13 06:04:33;;;;;;;6.77;4.50;;;21.30;52.30;;;;;;4990867;28;20176;-71
2021/05/13 06:07:00;;;;;;;7.40;4.83;;;22.50;49.40;;;;;;4990355;28;20175;-71
2021/05/13 06:09:25;;;;;;;5.10;4.60;;;23.40;47.10;;;;;;4989924;28;20201;-71
2021/05/13 06:11:51;;;;;;;5.70;4.50;;;24.10;43.30;;;;;;4991178;28;20453;-71
2021/05/13 06:14:17;;;;;;;6.73;5.00;;;24.40;42.20;;;;;;4990601;28;20232;-71
2021/05/13 06:16:43;;;;;;;8.67;4.40;;;24.40;42.20;;;;;;4990231;28;20176;-70
2021/05/13 06:19:09;;;;;;;4.37;4.07;;;25.00;41.70;;;;;;4990513;28;20407;-71
2021/05/13 06:21:38;;;;;;;5.90;4.47;;;25.50;40.90;;;;;;4990605;28;20198;-72
2021/05/13 06:24:08;;;;;;;4.67;4.27;;;25.90;39.30;;;;;;4990319;28;20234;-71
2021/05/13 06:26:34;;;;;;;6.30;5.70;;;26.20;38.00;;;;;;4973775;28;20979;-72
2021/05/13 06:29:00;;;;;;;5.80;5.20;;;26.60;38.40;;;;;;4990668;28;20474;-72
2021/05/13 06:31:26;;;;;;;9.93;5.43;;;26.60;36.90;;;;;;4972807;28;20548;-72
2021/05/13 06:33:52;;;;;;;9.80;6.47;;;24.90;38.30;;;;;;4992438;28;20438;-72
2021/05/13 06:36:18;;;;;;;5.77;4.90;;;23.10;41.80;;;;;;4991676;28;20425;-72
2021/05/13 06:38:45;;;;;;;6.60;5.43;;;22.20;42.50;;;;;;4964558;28;20215;-72
2021/05/13 06:41:11;;;;;;;7.13;4.97;;;21.00;45.60;;;;;;4974266;28;20176;-78
2021/05/13 06:43:37;;;;;;;6.00;5.33;;;21.30;46.00;;;;;;4981182;28;20998;-79
2021/05/13 06:46:04;;;;;;;8.63;5.50;;;22.40;45.20;;;;;;4997337;28;20168;-76
2021/05/13 06:48:30;;;;;;;7.07;5.30;;;23.10;43.70;;;;;;4978652;28;20415;-79
2021/05/13 06:50:56;;;;;;;5.60;4.87;;;24.40;41.80;;;;;;4995900;28;20438;-79
2021/05/13 06:53:22;;;;;;;7.90;5.33;;;25.90;39.50;;;;;;4987368;28;20467;-79
2021/05/13 06:55:52;;;;;;;6.90;5.63;;;26.50;37.10;;;;;;4981517;28;20424;-78
2021/05/13 06:58:21;;;;;;;10.27;6.50;;;26.40;37.50;;;;;;4965774;28;20176;-78
2021/05/13 07:00:48;;;;;;;9.50;6.50;;;26.50;36.70;;;;;;5003347;28;20422;-81
2021/05/13 07:03:15;;;;;;;6.40;5.80;;;26.60;36.70;;;;;;4999755;28;20466;-83
2021/05/13 07:05:42;;;;;;;6.90;6.30;;;27.00;36.60;;;;;;4972054;28;20419;-78
2021/05/13 07:08:09;;;;;;;6.57;5.97;;;27.10;35.90;;;;;;5005443;28;20510;-79
2021/05/13 07:10:36;;;;;;;5.97;5.37;;;26.70;35.90;;;;;;5003403;28;20411;-79
2021/05/13 07:13:05;;;;;;;9.20;5.63;;;26.40;36.90;;;;;;4956340;28;20490;-84
2021/05/13 07:15:36;;;;;;;7.30;6.13;;;27.30;35.50;;;;;;4984317;28;20423;-82
2021/05/13 07:18:03;;;;;;;7.03;6.40;;;27.60;35.60;;;;;;4965992;28;20431;-78
2021/05/13 07:20:30;;;;;;;7.20;5.30;;;28.20;34.00;;;;;;4981985;28;20416;-79
2021/05/13 07:23:04;;;;;;;6.53;5.93;;;28.30;33.50;;;;;;4984357;28;20659;-82
2021/05/13 07:25:37;;;;;;;7.50;6.80;;;28.30;33.50;;;;;;4983061;28;20408;-82
2021/05/13 07:28:06;;;;;;;10.53;6.73;;;28.70;33.20;;;;;;4965898;28;20906;-79
2021/05/13 07:30:37;;;;;;;8.97;6.13;;;29.50;32.30;;;;;;4980150;28;21063;-83
2021/05/13 07:33:03;;;;;;;6.00;5.50;;;30.00;31.50;;;;;;4981042;28;20458;-76
2021/05/13 07:35:29;;;;;;;7.27;6.10;;;29.60;31.40;;;;;;4997814;28;20415;-77
2021/05/13 07:37:55;;;;;;;8.80;5.50;;;30.00;31.20;;;;;;4998680;28;20500;-75
2021/05/13 07:40:27;;;;;;;8.37;6.53;;;30.70;30.00;;;;;;4991208;28;20191;-78
2021/05/13 07:42:53;;;;;;;6.43;5.87;;;31.20;29.70;;;;;;5000351;28;20266;-81
2021/05/13 07:45:19;;;;;;;4.93;4.53;;;31.30;29.50;;;;;;4967286;28;20415;-79
2021/05/13 07:47:46;;;;;;;5.40;5.00;;;32.50;28.50;;;;;;5002988;28;20940;-81
2021/05/13 07:50:21;;;;;;;6.20;5.60;;;33.10;27.40;;;;;;5001209;28;20175;-78
2021/05/13 07:52:48;;;;;;;9.20;5.60;;;32.70;27.30;;;;;;4992670;28;20445;-76
2021/05/13 07:55:15;;;;;;;6.60;5.30;;;32.80;26.70;;;;;;4977690;28;20416;-77
2021/05/13 07:57:43;;;;;;;6.03;5.63;;;33.20;27.00;;;;;;4992596;28;20397;-78
2021/05/13 08:00:10;;;;;;;5.10;4.70;;;34.20;26.10;;;;;;4983676;28;21165;-81
2021/05/13 08:02:43;;;;;;;5.33;4.80;;;34.30;25.20;;;;;;5000651;28;20436;-80
2021/05/13 08:05:10;;;;;;;6.37;5.53;;;34.30;25.40;;;;;;4982467;28;20419;-78
2021/05/13 08:07:36;;;;;;;5.87;5.23;;;34.10;25.20;;;;;;4999386;28;20397;-79
2021/05/13 08:10:03;;;;;;;5.70;5.30;;;34.10;25.40;;;;;;5004269;28;20385;-77
2021/05/13 08:12:28;;;;;;;5.73;5.30;;;34.40;25.30;;;;;;5006103;28;20538;-80
2021/05/13 08:14:54;;;;;;;6.10;5.10;;;34.50;24.80;;;;;;4988127;28;20431;-81
2021/05/13 08:17:20;;;;;;;5.20;4.70;;;34.80;24.30;;;;;;5002808;28;20249;-81
2021/05/13 08:19:45;;;;;;;6.27;5.70;;;35.00;24.30;;;;;;4988737;28;20176;-82
2021/05/13 08:22:11;;;;;;;6.17;5.57;;;34.10;25.10;;;;;;4987187;28;20250;-80
2021/05/13 08:24:37;;;;;;;5.13;4.63;;;34.10;24.60;;;;;;4995857;28;20167;-77
2021/05/13 08:27:02;;;;;;;6.07;5.50;;;34.00;24.50;;;;;;4998234;28;20163;-75
2021/05/13 08:29:30;;;;;;;5.17;4.67;;;33.50;25.00;;;;;;4995990;28;20178;-77
2021/05/13 08:31:57;;;;;;;6.53;3.97;;;33.40;25.00;;;;;;4979446;28;20534;-80
2021/05/13 08:34:23;;;;;;;6.80;4.60;;;34.10;24.50;;;;;;4977512;28;20423;-77
2021/05/13 08:36:48;;;;;;;4.53;4.17;;;34.70;24.10;;;;;;4990968;28;20768;-76
2021/05/13 08:39:14;;;;;;;4.33;3.80;;;34.80;24.20;;;;;;4992500;28;20167;-76
2021/05/13 08:41:40;;;;;;;4.40;4.00;;;34.90;23.30;;;;;;4992042;28;20195;-75
2021/05/13 08:44:07;;;;;;;4.70;4.30;;;34.70;23.60;;;;;;4994171;28;20222;-75
2021/05/13 08:46:36;;;;;;;4.40;3.90;;;34.50;23.40;;;;;;4993165;28;20414;-75
2021/05/13 08:49:03;;;;;;;3.80;3.50;;;34.10;24.00;;;;;;4978125;28;20416;-74
2021/05/13 08:51:29;;;;;;;4.90;4.50;;;34.10;24.00;;;;;;4976625;28;20457;-76
2021/05/13 08:53:57;;;;;;;4.63;4.22;;;34.90;23.60;;;;;;4974748;28;20779;-80
2021/05/13 08:56:25;;;;;;;4.47;3.92;;;35.90;22.80;;;;;;4994117;28;20501;-76
2021/05/13 08:58:52;;;;;;;4.53;3.85;;;36.40;22.00;;;;;;4995787;28;20175;-77
2021/05/13 09:01:22;;;;;;;4.97;4.30;;;36.60;21.90;;;;;;4978010;28;20171;-75
2021/05/13 09:03:49;;;;;;;5.55;3.47;;;36.80;21.60;;;;;;4990406;28;20546;-75
2021/05/13 09:06:31;;;;;;;4.32;3.92;;;35.90;21.50;;;;;;4972444;28;20514;-77
2021/05/13 09:09:15;;;;;;;6.00;3.78;;;35.40;22.30;;;;;;4959433;28;20318;-71
2021/05/13 09:11:53;;;;;;;4.03;3.65;;;35.60;22.50;;;;;;4973197;28;20175;-70
2021/05/13 09:14:24;;;;;;;4.32;3.83;;;36.10;22.10;;;;;;4990414;28;20210;-70
2021/05/13 09:16:51;;;;;;;3.40;3.10;;;35.70;21.70;;;;;;4992276;28;20175;-69
2021/05/13 09:19:22;;;;;;;3.22;2.92;;;35.80;22.10;;;;;;4990993;28;20193;-69
2021/05/13 09:22:00;;;;;;;4.88;3.53;;;36.60;21.20;;;;;;4991655;28;20199;-71
2021/05/13 09:24:45;;;;;;;4.18;3.78;;;35.80;21.30;;;;;;4991266;28;20633;-72
2021/05/13 09:27:15;;;;;;;5.10;4.68;;;35.80;21.30;;;;;;4990643;28;20177;-70
2021/05/13 09:29:41;;;;;;;4.55;3.15;;;36.60;21.20;;;;;;4985035;28;20202;-70
2021/05/13 09:32:21;;;;;;;4.85;3.60;;;37.60;20.70;;;;;;4990302;28;20198;-69
2021/05/13 09:34:47;;;;;;;4.18;3.28;;;38.50;19.60;;;;;;4979886;28;20195;-71
2021/05/13 09:37:14;;;;;;;3.85;3.25;;;38.30;19.50;;;;;;4989497;28;20171;-69
2021/05/13 09:39:47;;;;;;;5.68;3.97;;;38.10;19.70;;;;;;4973310;28;20186;-68
2021/05/13 09:42:17;;;;;;;3.53;2.83;;;38.00;19.20;;;;;;4991258;28;20203;-71
2021/05/13 09:44:43;;;;;;;3.92;3.13;;;37.00;19.60;;;;;;4973685;28;20198;-72
2021/05/13 09:47:17;;;;;;;5.07;2.90;;;35.00;21.10;;;;;;4991740;28;20210;-73
2021/05/13 09:49:53;;;;;;;3.03;2.72;;;33.80;22.00;;;;;;4995121;28;20235;-70
2021/05/13 09:52:39;;;;;;;2.92;2.13;;;33.70;22.40;;;;;;4994675;28;20213;-69
2021/05/13 09:55:13;;;;;;;4.90;2.40;;;35.40;20.20;;;;;;4993512;28;20169;-71
2021/05/13 09:57:40;;;;;;;2.88;2.00;;;36.40;19.30;;;;;;4990504;28;20253;-71
2021/05/13 10:00:07;;;;;;;2.30;2.10;;;35.30;18.90;;;;;;4990281;28;20236;-69
2021/05/13 10:02:36;;;;;;;2.72;2.30;;;34.00;19.50;;;;;;4988707;28;20203;-72
2021/05/13 10:05:04;;;;;;;4.05;2.10;;;33.90;18.90;;;;;;4990703;28;20239;-70
2021/05/13 10:07:29;;;;;;;4.05;2.45;;;34.60;19.20;;;;;;4990048;28;20171;-72
2021/05/13 10:09:55;;;;;;;4.28;2.33;;;35.80;19.00;;;;;;4990360;28;20168;-72
2021/05/13 10:12:21;;;;;;;3.03;2.25;;;36.90;17.60;;;;;;4990060;28;20201;-71
2021/05/13 10:14:50;;;;;;;5.22;2.78;;;37.10;18.00;;;;;;4972902;28;20183;-70
2021/05/13 10:17:18;;;;;;;4.78;2.40;;;37.60;17.90;;;;;;4971654;28;20341;-69
2021/05/13 10:19:51;;;;;;;4.93;2.83;;;38.20;17.50;;;;;;4990814;28;20171;-71
2021/05/13 10:22:17;;;;;;;2.47;1.95;;;39.00;17.00;;;;;;4972420;28;20195;-68
2021/05/13 10:24:43;;;;;;;4.22;2.28;;;39.00;16.90;;;;;;4990322;28;20214;-71
2021/05/13 10:27:25;;;;;;;5.20;2.20;;;38.80;16.60;;;;;;4985975;28;20258;-73
2021/05/13 10:30:03;;;;;;;2.50;1.88;;;38.90;16.00;;;;;;4978884;28;20330;-84
2021/05/13 10:32:33;;;;;;;4.03;1.98;;;38.30;15.90;;;;;;5000971;28;20183;-83
2021/05/13 10:35:06;;;;;;;6.05;2.38;;;38.30;16.10;;;;;;4989147;28;20182;-84
2021/05/13 10:37:37;;;;;;;2.17;1.98;;;37.10;16.70;;;;;;5000253;28;20167;-83
2021/05/13 10:40:13;;;;;;;4.47;2.63;;;34.80;18.30;;;;;;5001352;28;20561;-84
2021/05/13 10:42:43;;;;;;;3.90;2.07;;;34.40;18.90;;;;;;4982819;28;20753;-83
2021/05/13 10:45:28;;;;;;;3.40;1.90;;;34.40;18.90;;;;;;4984485;28;20419;-83
2021/05/13 10:48:25;;;;;;;1.97;1.73;;;33.40;18.90;;;;;;5002834;28;20410;-82
2021/05/13 10:51:00;;;;;;;2.37;1.73;;;31.60;20.50;;;;;;5011849;28;20419;-83
2021/05/13 10:53:36;;;;;;;4.20;1.67;;;30.20;22.30;;;;;;5000142;28;20454;-80
2021/05/13 10:56:23;;;;;;;4.63;2.17;;;28.20;24.10;;;;;;5014650;28;20398;-80
2021/05/13 10:58:58;;;;;;;3.57;1.90;;;27.20;25.50;;;;;;5013405;28;20426;-81
2021/05/13 11:01:40;;;;;;;5.30;1.87;;;26.50;25.70;;;;;;5004940;28;20518;-80
2021/05/13 11:04:34;;;;;;;3.37;2.10;;;25.80;26.60;;;;;;4987689;28;20458;-83
2021/05/13 11:07:05;;;;;;;4.37;2.93;;;25.20;27.30;;;;;;4986099;28;20589;-83
2021/05/13 11:12:27;;;;;;;8.47;2.20;;;24.50;28.60;;;;;;5004465;28;20470;-82
2021/05/13 11:15:11;;;;;;;3.90;2.30;;;24.90;29.00;;;;;;5002362;28;20418;-80
2021/05/13 11:17:51;;;;;;;4.40;2.00;;;25.30;28.20;;;;;;5002491;28;20399;-81
2021/05/13 11:20:23;;;;;;;3.40;2.20;;;25.50;27.50;;;;;;5008519;28;20587;-81
2021/05/13 11:23:05;;;;;;;2.50;1.43;;;25.20;27.30;;;;;;5010208;28;20467;-79
2021/05/13 11:25:41;;;;;;;3.53;1.50;;;24.70;27.90;;;;;;4992025;28;20418;-80
2021/05/13 11:28:33;;;;;;;4.97;1.60;;;24.40;27.60;;;;;;5006611;28;20422;-81
2021/05/13 11:31:05;;;;;;;3.83;2.07;;;24.30;28.00;;;;;;4984363;28;20430;-79
2021/05/13 11:33:51;;;;;;;5.80;2.30;;;24.40;27.80;;;;;;5006133;28;20902;-81
2021/05/13 11:36:28;;;;;;;2.80;1.87;;;24.50;28.10;;;;;;5000629;28;20923;-79
2021/05/13 11:38:55;;;;;;;4.93;1.57;;;24.70;27.70;;;;;;5001553;28;20502;-81
2021/05/13 11:41:26;;;;;;;2.00;1.60;;;24.50;27.60;;;;;;5004513;28;20410;-80
2021/05/13 11:43:52;;;;;;;3.90;1.33;;;24.20;28.20;;;;;;5002610;28;20488;-80
2021/05/13 11:46:21;;;;;;;4.20;1.70;;;24.20;27.70;;;;;;5001174;28;20403;-80
2021/05/13 11:48:49;;;;;;;3.30;1.93;;;24.10;28.00;;;;;;5002194;28;20419;-80
2021/05/13 11:51:17;;;;;;;5.83;2.80;;;23.90;28.20;;;;;;4986606;28;20518;-80
2021/05/13 11:53:48;;;;;;;6.50;2.13;;;23.80;28.60;;;;;;5006623;28;20510;-80
2021/05/13 11:56:16;;;;;;;2.77;1.90;;;23.90;28.90;;;;;;5002185;28;20473;-81
2021/05/13 11:59:03;;;;;;;2.80;1.60;;;24.10;29.20;;;;;;5002284;28;20407;-79
2021/05/13 12:01:42;;;;;;;4.60;1.73;;;24.40;28.80;;;;;;4990850;28;20458;-83
2021/05/13 12:04:13;;;;;;;2.00;1.60;;;24.40;28.30;;;;;;5000165;28;20563;-80
2021/05/13 12:06:43;;;;;;;2.17;1.30;;;24.20;28.50;;;;;;5001568;28;20438;-81
2021/05/13 12:09:10;;;;;;;3.70;1.60;;;24.00;28.70;;;;;;5003790;28;20510;-81
2021/05/13 12:11:36;;;;;;;3.80;1.80;;;23.90;28.50;;;;;;5005896;28;20470;-78
2021/05/13 12:14:11;;;;;;;4.70;2.80;;;23.80;29.00;;;;;;5009594;28;20512;-80
2021/05/13 12:16:37;;;;;;;3.23;1.60;;;23.80;28.90;;;;;;5012141;28;20394;-81
2021/05/13 12:19:06;;;;;;;3.60;1.77;;;23.80;28.50;;;;;;5011109;28;20413;-80
2021/05/13 12:21:35;;;;;;;3.43;2.20;;;23.50;28.70;;;;;;5010012;28;20501;-79
2021/05/13 12:24:02;;;;;;;6.13;2.10;;;23.60;29.10;;;;;;5001587;28;20962;-79
2021/05/13 12:26:36;;;;;;;2.90;1.67;;;23.90;29.40;;;;;;4986535;28;20429;-80
2021/05/13 12:29:04;;;;;;;2.47;1.20;;;24.10;28.10;;;;;;4983091;28;20433;-79
2021/05/13 12:31:33;;;;;;;2.77;1.33;;;24.00;27.80;;;;;;5000107;28;20642;-80
2021/05/13 12:34:04;;;;;;;3.00;1.73;;;24.00;28.10;;;;;;5000702;28;20513;-80
2021/05/13 12:36:36;;;;;;;2.70;1.17;;;24.20;28.60;;;;;;4982312;28;20959;-81
2021/05/13 12:39:06;;;;;;;2.80;1.40;;;24.20;28.00;;;;;;4999803;28;20965;-80
2021/05/13 12:41:31;;;;;;;2.70;1.40;;;24.20;27.90;;;;;;5000626;28;20456;-80
2021/05/13 12:44:07;;;;;;;3.40;1.90;;;24.10;28.30;;;;;;5001263;28;21011;-79
2021/05/13 12:46:42;;;;;;;2.53;1.27;;;24.20;27.90;;;;;;5007058;28;20167;-79
2021/05/13 12:49:17;;;;;;;5.57;2.07;;;24.30;27.90;;;;;;4990905;28;20566;-80
2021/05/13 12:51:57;;;;;;;2.87;1.60;;;24.40;27.50;;;;;;4987410;28;20418;-79
2021/05/13 12:54:23;;;;;;;3.77;1.60;;;24.30;27.40;;;;;;4988571;28;20439;-80
2021/05/13 12:56:49;;;;;;;2.80;1.10;;;24.20;27.50;;;;;;4984679;28;20473;-79